Time;durP1;ratioP1;P1;durP2;ratioP2;P2;SDS_P1;SDS_P2;PMS_P1;PMS_P2;Temp;Humidity;BMP_temperature;BMP_pressure;BME280_temperature;BME280_humidity;BME280_pressure;Samples;Min_cycle;Max_cycle;Signal;HPM_P1;HPM_P2
2024/01/09 07:30:35;;;;;;;14.20;6.50;;;;;;;-8.19;100.00;101926.05;107037;1287;1002621;-59
2024/01/09 07:33:01;;;;;;;16.00;8.00;;;;;;;-5.99;100.00;101919.75;108177;1288;22105;-62
2024/01/09 07:35:34;;;;;;;19.20;8.90;;;;;;;-5.54;100.00;101914.27;108035;1281;21979;-62
2024/01/09 07:37:59;;;;;;;20.10;9.60;;;;;;;-5.22;100.00;101917.77;107214;1283;1002993;-62
2024/01/09 07:40:25;;;;;;;19.60;9.10;;;;;;;-5.10;100.00;101926.95;107961;1289;22032;-62
2024/01/09 07:42:51;;;;;;;12.90;5.70;;;;;;;-5.03;100.00;101925.85;107961;1280;22031;-62
2024/01/09 07:45:16;;;;;;;17.30;6.20;;;;;;;-5.00;98.47;101930.92;107897;1287;174286;-63
2024/01/09 07:47:42;;;;;;;12.00;5.40;;;;;;;-4.94;95.05;101932.35;108052;1283;21989;-62
2024/01/09 07:50:08;;;;;;;11.80;5.10;;;;;;;-4.88;92.13;101934.70;108044;1284;23608;-60
2024/01/09 07:52:34;;;;;;;12.80;5.80;;;;;;;-4.83;89.59;101943.96;107314;1287;1002928;-63
2024/01/09 07:54:59;;;;;;;12.20;5.80;;;;;;;-4.69;88.11;101946.56;107325;1283;1002559;-62
2024/01/09 07:57:25;;;;;;;10.60;4.70;;;;;;;-4.61;86.33;101944.02;108052;1283;21989;-62
2024/01/09 07:59:50;;;;;;;13.50;4.90;;;;;;;-4.54;85.36;101951.08;108089;1282;21989;-62
2024/01/09 08:02:16;;;;;;;8.90;4.50;;;;;;;-4.50;84.66;101953.48;108098;1287;21993;-63
2024/01/09 08:04:41;;;;;;;10.50;4.60;;;;;;;-4.40;84.26;101957.60;108065;1287;21981;-60
2024/01/09 08:07:07;;;;;;;10.80;4.60;;;;;;;-4.35;82.91;101958.98;108062;1287;21987;-63
2024/01/09 08:09:33;;;;;;;9.20;4.80;;;;;;;-4.30;82.34;101963.29;107317;1280;1002862;-60
2024/01/09 08:11:58;;;;;;;13.10;4.80;;;;;;;-4.25;81.89;101964.14;107296;1280;1002813;-60
2024/01/09 08:14:24;;;;;;;8.60;4.40;;;;;;;-4.21;80.54;101974.26;108105;1287;21987;-62
2024/01/09 08:16:49;;;;;;;9.60;4.60;;;;;;;-4.16;80.22;101975.42;108286;1287;21989;-64
2024/01/09 08:19:15;;;;;;;12.00;4.70;;;;;;;-4.07;80.65;101975.79;108150;1278;21984;-61
2024/01/09 08:21:40;;;;;;;9.20;4.80;;;;;;;-3.98;80.31;101972.62;108094;1281;21998;-63
2024/01/09 08:24:07;;;;;;;9.70;4.00;;;;;;;-3.92;80.25;101969.48;108256;1287;21987;-64
2024/01/09 08:26:33;;;;;;;9.60;4.30;;;;;;;-3.87;79.22;101970.30;108171;1283;23771;-61
2024/01/09 08:29:00;;;;;;;11.50;3.90;;;;;;;-3.83;79.21;101965.45;107413;1286;1002499;-60
2024/01/09 08:31:25;;;;;;;8.50;4.50;;;;;;;-3.77;79.15;101965.55;108262;1287;22023;-64
2024/01/09 08:33:51;;;;;;;8.70;4.70;;;;;;;-3.72;78.34;101970.17;108156;1287;22267;-61
2024/01/09 08:36:17;;;;;;;33.00;14.40;;;;;;;-3.68;77.76;101965.69;108019;1287;21996;-65
2024/01/09 08:38:42;;;;;;;10.30;5.20;;;;;;;-3.62;77.96;101963.69;108225;1287;21983;-62
2024/01/09 08:41:10;;;;;;;10.30;4.70;;;;;;;-3.55;77.34;101960.05;108277;1285;22245;-65
2024/01/09 08:43:36;;;;;;;12.20;5.40;;;;;;;-3.51;76.91;101963.73;107317;1287;1002794;-65
2024/01/09 08:46:02;;;;;;;8.50;4.60;;;;;;;-3.48;76.20;101967.25;107354;1287;1017290;-65
2024/01/09 08:48:27;;;;;;;8.90;4.10;;;;;;;-3.48;75.03;101962.27;108105;1287;21993;-65
2024/01/09 08:50:53;;;;;;;9.60;4.00;;;;;;;-3.47;74.87;101970.44;108141;1287;22100;-62
2024/01/09 08:53:20;;;;;;;9.70;4.30;;;;;;;-3.44;74.55;101963.91;108075;1286;21986;-61
2024/01/09 08:55:46;;;;;;;11.30;4.50;;;;;;;-3.41;73.66;101965.98;107974;1287;23612;-65
2024/01/09 08:58:13;;;;;;;9.00;4.30;;;;;;;-3.36;74.58;101976.48;108115;1285;21991;-62
2024/01/09 09:00:39;;;;;;;8.10;3.80;;;;;;;-3.36;74.96;101969.13;107399;1287;1002449;-61
2024/01/09 09:03:04;;;;;;;8.10;3.60;;;;;;;-3.24;75.06;101971.50;107352;1287;1002272;-65
2024/01/09 09:05:30;;;;;;;8.10;3.70;;;;;;;-3.13;75.50;101978.60;108259;1281;21996;-61
2024/01/09 09:07:56;;;;;;;10.90;4.10;;;;;;;-3.05;75.15;101980.00;107513;1287;1002704;-65
2024/01/09 09:10:21;;;;;;;9.20;3.90;;;;;;;-3.01;74.75;101983.20;107355;1281;1002615;-61
2024/01/09 09:12:47;;;;;;;14.10;3.70;;;;;;;-2.90;75.90;101987.02;108123;1287;21996;-62
2024/01/09 09:15:13;;;;;;;6.90;3.30;;;;;;;-2.78;76.03;101998.11;108094;1287;21994;-61
2024/01/09 09:17:39;;;;;;;11.50;3.50;;;;;;;-2.68;75.97;102009.80;108107;1287;21991;-62
2024/01/09 09:20:05;;;;;;;9.40;3.90;;;;;;;-2.62;75.97;102017.05;107385;1287;1003123;-62
2024/01/09 09:22:33;;;;;;;8.40;3.40;;;;;;;-2.57;74.85;102022.56;108162;1287;21989;-62
2024/01/09 09:24:59;;;;;;;8.90;3.40;;;;;;;-2.47;76.32;102026.30;108158;1287;22790;-61
2024/01/09 09:27:24;;;;;;;8.90;3.70;;;;;;;-2.33;77.16;102027.27;108116;1287;22024;-64
2024/01/09 09:29:52;;;;;;;10.70;3.80;;;;;;;-2.25;76.00;102024.84;108134;1287;22002;-63
2024/01/09 09:32:18;;;;;;;15.50;3.50;;;;;;;-2.12;78.80;102018.49;108110;1287;21997;-65
2024/01/09 09:34:43;;;;;;;9.30;3.80;;;;;;;-1.76;82.18;102021.82;108178;1287;21989;-62
2024/01/09 09:37:09;;;;;;;9.10;3.80;;;;;;;-1.44;83.03;102018.67;108240;1287;21996;-64
2024/01/09 09:39:35;;;;;;;9.00;5.60;;;;;;;-1.18;81.90;102017.73;108310;1287;22454;-66
2024/01/09 09:42:00;;;;;;;10.00;5.40;;;;;;;-1.19;76.82;102018.34;108155;1287;21994;-62
2024/01/09 09:44:26;;;;;;;11.90;4.10;;;;;;;-1.30;74.55;102019.58;108159;1287;21994;-67
2024/01/09 09:46:54;;;;;;;8.90;4.90;;;;;;;-1.40;73.97;102018.79;108109;1286;22000;-65
2024/01/09 09:49:23;;;;;;;10.70;5.60;;;;;;;-1.45;73.61;102026.52;108156;1287;22958;-62
2024/01/09 09:51:49;;;;;;;8.90;3.90;;;;;;;-1.54;72.08;102039.73;108169;1287;21987;-66
2024/01/09 09:54:15;;;;;;;9.40;4.90;;;;;;;-1.55;72.85;102047.77;108154;1287;21997;-62
2024/01/09 09:56:41;;;;;;;13.00;4.30;;;;;;;-1.49;73.74;102051.77;107268;1287;1002551;-62
2024/01/09 09:59:09;;;;;;;7.30;4.10;;;;;;;-1.43;73.57;102053.73;107377;1287;1002444;-67
2024/01/09 10:01:34;;;;;;;9.00;4.10;;;;;;;-1.39;73.49;102042.96;108131;1287;21996;-67
2024/01/09 10:04:27;;;;;;;9.70;4.40;;;;;;;-1.29;74.37;102038.88;108032;1281;21994;-68
2024/01/09 10:06:57;;;;;;;9.50;4.20;;;;;;;-1.19;74.09;102041.04;108167;1287;21974;-64
2024/01/09 10:09:23;;;;;;;7.60;3.30;;;;;;;-1.12;74.13;102040.64;108236;1287;21989;-67
2024/01/09 10:11:49;;;;;;;9.90;3.60;;;;;;;-1.05;73.42;102044.89;108056;1287;21992;-68
2024/01/09 10:14:15;;;;;;;8.50;3.60;;;;;;;-1.00;72.66;102042.40;107393;1284;1003147;-63
2024/01/09 10:16:51;;;;;;;7.20;3.20;;;;;;;-0.96;72.30;102042.13;107360;1282;1003128;-66
2024/01/09 10:19:17;;;;;;;6.30;3.00;;;;;;;-0.93;71.06;102044.59;108139;1287;21990;-62
2024/01/09 10:21:43;;;;;;;7.20;3.60;;;;;;;-0.90;71.01;102045.96;108101;1287;22032;-64
2024/01/09 10:24:09;;;;;;;6.70;3.50;;;;;;;-0.81;72.21;102049.07;108092;1287;21991;-65
2024/01/09 10:26:34;;;;;;;6.80;2.80;;;;;;;-0.73;72.55;102050.58;108042;1287;22002;-62
2024/01/09 10:29:00;;;;;;;7.30;2.60;;;;;;;-0.67;71.31;102049.73;108147;1287;21993;-66
2024/01/09 10:31:25;;;;;;;6.20;3.50;;;;;;;-0.64;70.35;102048.04;108136;1287;21955;-66
2024/01/09 10:33:51;;;;;;;8.80;3.30;;;;;;;-0.58;70.87;102048.55;108149;1287;21989;-67
2024/01/09 10:36:17;;;;;;;6.30;3.00;;;;;;;-0.48;71.30;102039.31;108068;1287;21995;-65
2024/01/09 10:38:44;;;;;;;6.80;3.00;;;;;;;-0.47;69.59;102032.35;108033;1287;21995;-62
2024/01/09 10:41:16;;;;;;;8.40;3.30;;;;;;;-0.47;68.99;102026.11;107482;1287;1002320;-62
2024/01/09 10:43:43;;;;;;;10.20;3.70;;;;;;;-0.50;68.30;102019.89;108315;1287;21990;-66
2024/01/09 10:46:08;;;;;;;8.00;2.90;;;;;;;-0.51;66.93;102023.26;108291;1285;21990;-65
2024/01/09 10:48:35;;;;;;;6.90;2.90;;;;;;;-0.56;65.93;102026.27;108250;1285;22005;-66
2024/01/09 10:51:00;;;;;;;6.30;3.20;;;;;;;-0.59;66.23;102027.09;107995;1287;22001;-66
2024/01/09 10:53:26;;;;;;;6.40;2.60;;;;;;;-0.57;66.35;102026.00;107862;1287;22003;-62
2024/01/09 10:55:52;;;;;;;8.30;3.60;;;;;;;-0.49;68.02;102028.42;108097;1287;22003;-66
2024/01/09 10:58:17;;;;;;;7.60;2.90;;;;;;;-0.36;68.57;102036.53;107835;1287;22008;-65
2024/01/09 11:00:43;;;;;;;7.00;3.10;;;;;;;-0.29;68.13;102043.16;108087;1284;22046;-62
2024/01/09 11:03:09;;;;;;;6.90;2.80;;;;;;;-0.24;67.52;102045.04;108004;1287;21989;-62
2024/01/09 11:05:35;;;;;;;6.80;2.60;;;;;;;-0.21;67.79;102050.23;108296;1287;21985;-66
2024/01/09 11:08:00;;;;;;;5.90;2.90;;;;;;;-0.13;67.82;102049.48;108141;1287;21989;-65
2024/01/09 11:10:26;;;;;;;11.50;3.00;;;;;;;-0.05;68.76;102048.92;107890;1287;22001;-63
2024/01/09 11:12:52;;;;;;;7.10;3.40;;;;;;;0.04;68.36;102047.52;107123;1287;1003676;-63
2024/01/09 11:15:29;;;;;;;6.30;2.90;;;;;;;0.14;69.04;102047.19;107319;1287;1002416;-66
2024/01/09 11:17:58;;;;;;;7.20;2.70;;;;;;;0.21;68.15;102046.76;108022;1287;22081;-63
2024/01/09 11:20:23;;;;;;;16.80;6.30;;;;;;;0.29;68.50;102051.31;108201;1283;21992;-66
2024/01/09 11:22:49;;;;;;;10.20;3.10;;;;;;;0.37;68.96;102044.86;108121;1287;22016;-64
2024/01/09 11:25:18;;;;;;;12.50;4.20;;;;;;;0.41;68.30;102049.77;108105;1287;21992;-62
2024/01/09 11:27:46;;;;;;;9.70;3.60;;;;;;;0.51;69.34;102046.70;108148;1287;22002;-67
2024/01/09 11:30:14;;;;;;;11.20;3.00;;;;;;;0.54;67.02;102043.05;108135;1287;21989;-67
2024/01/09 11:32:39;;;;;;;8.20;3.80;;;;;;;0.49;65.96;102045.72;108214;1279;22105;-63
2024/01/09 11:35:16;;;;;;;9.00;3.60;;;;;;;0.47;65.64;102044.70;108146;1287;22000;-63
2024/01/09 11:37:46;;;;;;;8.10;3.20;;;;;;;0.44;65.05;102043.86;108233;1287;22048;-67
2024/01/09 11:40:12;;;;;;;8.30;3.50;;;;;;;0.36;64.38;102045.52;108146;1286;21977;-63
2024/01/09 11:42:59;;;;;;;7.30;3.10;;;;;;;0.33;64.73;102047.41;108127;1287;22159;-67
2024/01/09 11:45:25;;;;;;;8.40;2.90;;;;;;;0.32;64.75;102046.83;108117;1287;21994;-66
2024/01/09 11:47:53;;;;;;;7.80;2.70;;;;;;;0.32;65.21;102046.87;107351;1287;1003190;-68
2024/01/09 11:50:19;;;;;;;9.10;3.10;;;;;;;0.33;64.96;102043.09;108010;1287;22457;-61
2024/01/09 11:52:49;;;;;;;7.10;3.30;;;;;;;0.24;62.64;102033.60;107821;1287;23647;-68
2024/01/09 11:55:15;;;;;;;8.10;3.30;;;;;;;0.22;63.62;102033.64;108134;1287;21992;-68
2024/01/09 11:57:41;;;;;;;7.20;3.40;;;;;;;0.24;64.72;102036.74;108113;1287;22001;-63
2024/01/09 12:00:08;;;;;;;7.10;3.20;;;;;;;0.29;64.98;102041.65;107409;1287;1002246;-62
2024/01/09 12:02:36;;;;;;;11.00;3.60;;;;;;;0.31;64.08;102048.70;108107;1287;21995;-63
2024/01/09 12:05:04;;;;;;;8.30;3.10;;;;;;;0.27;62.41;102055.52;108195;1287;21997;-63
2024/01/09 12:07:32;;;;;;;8.80;2.60;;;;;;;0.22;62.59;102060.77;108257;1287;22008;-63
2024/01/09 12:09:59;;;;;;;8.90;2.70;;;;;;;0.19;62.64;102060.98;108172;1287;21992;-67
2024/01/09 12:12:25;;;;;;;7.20;3.60;;;;;;;0.18;62.75;102055.16;108029;1287;21978;-63
2024/01/09 12:14:52;;;;;;;8.40;3.60;;;;;;;0.21;63.66;102057.93;107352;1287;1003023;-67
2024/01/09 12:17:20;;;;;;;6.90;3.30;;;;;;;0.28;64.17;102051.10;108125;1287;22084;-67
2024/01/09 12:19:45;;;;;;;7.00;2.80;;;;;;;0.36;64.78;102050.85;108189;1287;23786;-63
2024/01/09 12:22:11;;;;;;;10.50;3.70;;;;;;;0.36;62.93;102058.13;108100;1287;21992;-64
2024/01/09 12:24:37;;;;;;;8.50;3.80;;;;;;;0.33;62.57;102066.21;108184;1287;22008;-67
2024/01/09 12:27:02;;;;;;;32.30;11.80;;;;;;;0.32;62.97;102074.96;108007;1287;21989;-66
2024/01/09 12:29:28;;;;;;;27.80;10.10;;;;;;;0.29;62.87;102069.29;108034;1287;22456;-63
2024/01/09 12:31:54;;;;;;;15.00;5.80;;;;;;;0.27;62.08;102071.41;108103;1287;23448;-66
2024/01/09 12:34:19;;;;;;;8.50;4.30;;;;;;;0.26;61.18;102074.84;107997;1287;22003;-63
2024/01/09 12:36:45;;;;;;;7.60;4.00;;;;;;;0.24;61.40;102078.34;107998;1287;22028;-68
2024/01/09 12:39:15;;;;;;;7.50;3.50;;;;;;;0.28;62.84;102082.02;108116;1287;21991;-63
2024/01/09 12:41:43;;;;;;;5.80;3.30;;;;;;;0.34;63.61;102086.34;108203;1287;21995;-67
2024/01/09 12:44:11;;;;;;;10.10;4.80;;;;;;;0.44;64.86;102087.39;108047;1287;21982;-66
2024/01/09 12:46:36;;;;;;;8.00;3.80;;;;;;;0.49;64.57;102091.66;108123;1287;22003;-67
2024/01/09 12:49:02;;;;;;;9.60;3.80;;;;;;;0.51;63.78;102095.36;108189;1287;21995;-66
2024/01/09 12:51:32;;;;;;;8.20;4.00;;;;;;;0.48;63.58;102091.25;108148;1287;21993;-67
2024/01/09 12:53:57;;;;;;;8.70;3.00;;;;;;;0.46;63.38;102089.91;108219;1287;22005;-63
2024/01/09 12:56:23;;;;;;;8.10;3.60;;;;;;;0.45;63.31;102093.67;108264;1287;21994;-66
2024/01/09 12:58:49;;;;;;;6.30;2.90;;;;;;;0.50;64.44;102094.11;107487;1287;1002725;-65
2024/01/09 13:01:15;;;;;;;8.70;3.60;;;;;;;0.56;66.12;102093.06;107509;1287;1002509;-66
2024/01/09 13:03:40;;;;;;;9.10;3.60;;;;;;;0.63;66.26;102089.52;108233;1287;21989;-64
2024/01/09 13:06:06;;;;;;;21.00;7.60;;;;;;;0.67;66.67;102088.36;108128;1287;21974;-66
2024/01/09 13:08:33;;;;;;;37.90;14.40;;;;;;;0.66;65.73;102091.02;108042;1287;23028;-64
2024/01/09 13:11:05;;;;;;;47.70;17.70;;;;;;;0.66;66.23;102096.59;108254;1287;21988;-68
2024/01/09 13:13:32;;;;;;;43.60;16.10;;;;;;;0.66;66.16;102095.73;108214;1287;21998;-63
2024/01/09 13:15:58;;;;;;;31.50;13.80;;;;;;;0.65;65.61;102093.08;108180;1287;21995;-66
2024/01/09 13:18:24;;;;;;;15.40;6.90;;;;;;;0.58;64.37;102088.04;107530;1287;1002730;-66
2024/01/09 13:20:49;;;;;;;11.70;5.70;;;;;;;0.44;62.66;102086.04;108242;1287;21986;-66
2024/01/09 13:23:17;;;;;;;12.80;6.30;;;;;;;0.27;61.70;102084.39;108008;1287;21992;-65
2024/01/09 13:25:44;;;;;;;8.30;3.40;;;;;;;0.11;61.32;102084.84;108179;1287;22043;-63
2024/01/09 13:28:11;;;;;;;6.00;2.90;;;;;;;-0.01;61.01;102089.50;108164;1286;21981;-66
2024/01/09 13:30:37;;;;;;;5.30;2.60;;;;;;;-0.16;61.13;102086.42;108211;1287;22002;-67
2024/01/09 13:33:04;;;;;;;8.90;4.30;;;;;;;-0.32;60.73;102083.86;107398;1287;1002538;-66
2024/01/09 13:35:34;;;;;;;8.40;4.00;;;;;;;-0.44;61.05;102080.11;108150;1287;21995;-66
2024/01/09 13:38:00;;;;;;;;;;;;;;;-0.54;60.69;102076.58;108177;1287;22023;-67
2024/01/09 13:40:26;;;;;;;8.90;3.70;;;;;;;-0.68;60.22;102073.98;108261;1287;21995;-62
2024/01/09 13:42:52;;;;;;;5.30;2.40;;;;;;;-0.81;60.09;102075.78;108192;1287;21997;-66
2024/01/09 13:45:18;;;;;;;8.60;2.60;;;;;;;-0.92;60.06;102076.85;108235;1287;21964;-61
2024/01/09 13:47:44;;;;;;;7.00;2.40;;;;;;;-1.02;60.13;102081.55;107399;1287;1002533;-66
2024/01/09 13:50:11;;;;;;;6.70;2.80;;;;;;;-1.11;60.95;102086.91;108134;1287;21992;-62
2024/01/09 13:52:36;;;;;;;5.10;2.40;;;;;;;-1.16;60.87;102085.55;107453;1287;1002533;-62
2024/01/09 13:55:04;;;;;;;7.30;2.70;;;;;;;-1.25;60.73;102082.02;107413;1287;1002941;-61
2024/01/09 13:57:31;;;;;;;6.70;2.70;;;;;;;-1.31;60.97;102084.10;108156;1287;21985;-62
2024/01/09 13:59:57;;;;;;;7.00;3.00;;;;;;;-1.35;61.69;102083.69;108098;1287;22026;-61
2024/01/09 14:02:22;;;;;;;9.40;4.30;;;;;;;-1.42;60.99;102083.54;108169;1287;21996;-64
2024/01/09 14:04:49;;;;;;;7.40;3.60;;;;;;;-1.49;61.41;102084.48;108136;1287;21991;-66
2024/01/09 14:07:15;;;;;;;5.60;2.80;;;;;;;-1.53;61.67;102085.11;108181;1287;21976;-66
2024/01/09 14:09:40;;;;;;;8.70;3.70;;;;;;;-1.59;61.46;102088.31;107478;1287;1002724;-65
2024/01/09 14:12:06;;;;;;;9.00;3.40;;;;;;;-1.67;61.53;102084.70;107446;1287;1002361;-61
2024/01/09 14:14:33;;;;;;;9.90;4.00;;;;;;;-1.72;61.82;102089.17;107388;1287;1003035;-65
2024/01/09 14:17:01;;;;;;;5.80;2.60;;;;;;;-1.79;61.72;102088.11;108157;1287;21991;-66
2024/01/09 14:19:26;;;;;;;7.80;3.30;;;;;;;-1.86;61.00;102083.12;107424;1287;1003204;-65
2024/01/09 14:21:52;;;;;;;14.60;7.30;;;;;;;-1.99;61.03;102078.88;108152;1287;21969;-66
2024/01/09 14:24:18;;;;;;;12.00;4.40;;;;;;;-2.07;60.99;102078.15;108182;1286;21996;-64
2024/01/09 14:26:47;;;;;;;11.20;5.50;;;;;;;-2.15;60.90;102082.27;108125;1287;21988;-65
2024/01/09 14:29:12;;;;;;;8.50;4.20;;;;;;;-2.24;60.82;102082.35;107421;1287;1003195;-66
2024/01/09 14:31:38;;;;;;;9.20;3.90;;;;;;;-2.34;60.83;102084.65;108142;1287;22026;-61
2024/01/09 14:34:04;;;;;;;7.50;4.00;;;;;;;-2.39;60.90;102088.08;107416;1287;1002711;-61
2024/01/09 14:36:29;;;;;;;8.70;3.20;;;;;;;-2.47;60.83;102089.56;107397;1287;1003228;-61
2024/01/09 14:38:55;;;;;;;6.00;2.70;;;;;;;-2.53;60.85;102090.73;107391;1287;1002459;-65
2024/01/09 14:41:21;;;;;;;7.60;3.30;;;;;;;-2.60;60.96;102096.45;107410;1287;1002593;-61
2024/01/09 14:43:46;;;;;;;9.20;3.50;;;;;;;-2.64;60.90;102107.48;108150;1287;21992;-61
2024/01/09 14:46:13;;;;;;;6.70;2.80;;;;;;;-2.65;61.27;102107.60;108202;1287;21959;-63
2024/01/09 14:48:39;;;;;;;8.00;3.30;;;;;;;-2.68;61.29;102102.13;107484;1287;1002388;-65
2024/01/09 14:51:05;;;;;;;9.50;4.40;;;;;;;-2.70;61.47;102103.36;107406;1287;1002633;-65
2024/01/09 14:53:31;;;;;;;7.90;3.70;;;;;;;-2.72;61.78;102107.17;108135;1287;21994;-65
2024/01/09 14:55:57;;;;;;;9.50;4.30;;;;;;;-2.73;61.87;102114.95;108209;1287;22004;-65
2024/01/09 14:58:23;;;;;;;10.70;4.90;;;;;;;-2.75;61.91;102119.49;108251;1287;21989;-65
2024/01/09 15:00:49;;;;;;;7.20;3.00;;;;;;;-2.78;61.69;102117.70;108238;1287;21996;-65
2024/01/09 15:03:14;;;;;;;10.90;4.30;;;;;;;-2.80;61.78;102116.39;107458;1287;1003122;-62
2024/01/09 15:05:40;;;;;;;7.50;3.20;;;;;;;-2.83;61.71;102118.55;108172;1287;21994;-65
2024/01/09 15:08:06;;;;;;;9.30;3.30;;;;;;;-2.87;61.58;102117.95;108047;1287;23711;-65
2024/01/09 15:10:32;;;;;;;32.30;11.20;;;;;;;-2.89;61.56;102111.45;108182;1287;22040;-61
2024/01/09 15:12:57;;;;;;;25.50;9.80;;;;;;;-2.91;61.61;102112.02;107460;1287;1002894;-65
2024/01/09 15:15:23;;;;;;;24.00;8.60;;;;;;;-2.92;61.50;102108.67;108227;1287;21998;-61
2024/01/09 15:17:48;;;;;;;21.90;8.70;;;;;;;-2.95;61.26;102105.36;108131;1287;22030;-61
2024/01/09 15:20:14;;;;;;;33.30;12.80;;;;;;;-2.95;61.68;102102.77;108164;1287;22026;-61
2024/01/09 15:22:39;;;;;;;36.20;12.40;;;;;;;-2.94;61.78;102100.79;108139;1287;22000;-61
2024/01/09 15:25:06;;;;;;;44.10;13.80;;;;;;;-2.94;61.67;102101.68;107465;1287;1002769;-61
2024/01/09 15:27:32;;;;;;;34.00;12.20;;;;;;;-2.95;61.76;102098.33;107426;1287;1002295;-61
2024/01/09 15:29:58;;;;;;;35.10;10.70;;;;;;;-2.94;62.29;102100.48;108205;1287;22004;-66
2024/01/09 15:32:23;;;;;;;21.50;9.00;;;;;;;-2.95;61.70;102098.64;107405;1287;1002579;-61
2024/01/09 15:34:49;;;;;;;15.40;6.40;;;;;;;-3.00;61.70;102102.14;107415;1287;1003871;-65
2024/01/09 15:37:14;;;;;;;11.80;4.40;;;;;;;-2.99;61.91;102105.48;108140;1287;22124;-61
2024/01/09 15:39:40;;;;;;;10.20;3.80;;;;;;;-3.01;61.48;102106.86;108130;1287;21989;-64
2024/01/09 15:42:06;;;;;;;10.70;3.80;;;;;;;-3.04;61.09;102110.91;108251;1277;21999;-66
2024/01/09 15:44:31;;;;;;;9.70;3.80;;;;;;;-3.08;60.94;102109.44;108133;1287;22049;-61
2024/01/09 15:46:57;;;;;;;38.50;16.40;;;;;;;-3.09;61.10;102111.81;107861;1287;22045;-61
2024/01/09 15:49:23;;;;;;;29.20;12.50;;;;;;;-3.09;61.16;102113.30;108133;1287;21992;-64
2024/01/09 15:51:48;;;;;;;33.40;15.90;;;;;;;-3.08;61.60;102114.97;108141;1287;21992;-65
2024/01/09 15:54:14;;;;;;;15.90;8.40;;;;;;;-3.09;61.22;102111.61;107440;1287;1002858;-65
2024/01/09 15:56:42;;;;;;;13.30;6.40;;;;;;;-3.11;60.93;102113.01;107394;1287;1002805;-61
2024/01/09 15:59:08;;;;;;;11.10;5.40;;;;;;;-3.12;60.75;102112.92;108142;1287;21984;-62
2024/01/09 16:01:35;;;;;;;8.20;3.80;;;;;;;-3.11;60.83;102105.98;108186;1287;23733;-66
2024/01/09 16:04:01;;;;;;;7.50;3.90;;;;;;;-3.13;60.70;102103.45;108147;1287;21988;-61
2024/01/09 16:06:28;;;;;;;12.00;4.40;;;;;;;-3.13;60.53;102098.10;108206;1287;22077;-62
2024/01/09 16:08:53;;;;;;;10.80;5.10;;;;;;;-3.13;60.61;102095.05;107400;1287;1002391;-64
2024/01/09 16:11:19;;;;;;;9.80;4.30;;;;;;;-3.09;61.62;102099.81;108131;1287;21989;-62
2024/01/09 16:13:45;;;;;;;12.50;4.70;;;;;;;-2.92;62.99;102096.31;107443;1287;1002390;-61
2024/01/09 16:16:16;;;;;;;10.10;3.90;;;;;;;-2.84;62.13;102103.60;107347;1287;1002457;-62
2024/01/09 16:18:42;;;;;;;12.50;4.40;;;;;;;-2.93;61.39;102103.65;108182;1287;21987;-61
2024/01/09 16:21:08;;;;;;;9.30;4.60;;;;;;;-2.90;60.90;102107.09;108098;1287;22002;-66
2024/01/09 16:23:37;;;;;;;9.40;4.40;;;;;;;-2.90;60.76;102111.89;107451;1287;1002222;-65
2024/01/09 16:26:06;;;;;;;12.70;4.60;;;;;;;-2.91;61.05;102108.94;107999;1287;22032;-61
2024/01/09 16:28:32;;;;;;;8.00;3.50;;;;;;;-2.90;61.27;102111.09;108183;1287;23072;-61
2024/01/09 16:30:58;;;;;;;11.00;3.90;;;;;;;-2.89;61.54;102114.21;108248;1283;21994;-66
2024/01/09 16:33:23;;;;;;;8.40;3.60;;;;;;;-2.91;60.98;102116.13;108102;1287;21997;-60
2024/01/09 16:35:49;;;;;;;11.10;4.00;;;;;;;-2.92;61.28;102121.26;108137;1287;22002;-65
2024/01/09 16:38:16;;;;;;;17.40;4.70;;;;;;;-2.94;61.03;102118.71;108083;1287;21998;-60
2024/01/09 16:40:42;;;;;;;12.50;4.90;;;;;;;-2.96;60.91;102118.89;107449;1287;1002823;-61
2024/01/09 16:43:08;;;;;;;9.30;3.80;;;;;;;-2.99;60.87;102118.17;107489;1287;1002482;-61
2024/01/09 16:45:35;;;;;;;9.70;4.00;;;;;;;-3.02;60.71;102119.84;108333;1287;21989;-65
2024/01/09 16:48:01;;;;;;;8.70;3.50;;;;;;;-3.03;60.76;102124.00;108242;1287;22483;-64
2024/01/09 16:50:27;;;;;;;22.50;9.90;;;;;;;-3.03;61.09;102125.45;108200;1287;22012;-65
2024/01/09 16:52:52;;;;;;;21.20;9.10;;;;;;;-3.04;61.02;102124.89;108258;1287;21995;-59
2024/01/09 16:55:18;;;;;;;18.00;9.40;;;;;;;-3.05;61.35;102118.45;108114;1287;21987;-64
2024/01/09 16:57:44;;;;;;;34.90;14.40;;;;;;;-3.04;61.45;102122.59;108112;1287;21989;-61
2024/01/09 17:00:10;;;;;;;63.80;20.70;;;;;;;-3.06;61.23;102126.27;107405;1287;1002344;-59
2024/01/09 17:02:36;;;;;;;41.20;15.30;;;;;;;-3.08;61.20;102132.80;108203;1284;21998;-65
2024/01/09 17:05:03;;;;;;;17.30;8.30;;;;;;;-3.09;61.12;102133.41;107289;1287;1002502;-65
2024/01/09 17:07:30;;;;;;;16.20;7.00;;;;;;;-3.07;61.43;102135.93;108225;1287;23679;-65
2024/01/09 17:09:57;;;;;;;14.20;6.40;;;;;;;-3.05;61.59;102135.21;108300;1287;22005;-59
2024/01/09 17:12:24;;;;;;;11.00;5.10;;;;;;;-3.06;61.50;102138.80;107465;1287;1003209;-65
2024/01/09 17:14:49;;;;;;;11.70;4.80;;;;;;;-3.04;61.60;102147.46;108109;1287;21999;-65
2024/01/09 17:17:16;;;;;;;11.80;4.80;;;;;;;-3.05;61.68;102153.95;108140;1287;21988;-64
2024/01/09 17:19:41;;;;;;;10.20;4.60;;;;;;;-3.07;61.54;102164.27;107415;1287;1002487;-65
2024/01/09 17:22:08;;;;;;;16.20;5.10;;;;;;;-3.09;61.46;102170.17;107444;1287;1002251;-65
2024/01/09 17:24:34;;;;;;;11.80;5.20;;;;;;;-3.09;62.13;102176.55;108216;1286;22000;-60
2024/01/09 17:27:00;;;;;;;15.10;5.80;;;;;;;-3.06;62.28;102172.98;107474;1283;1002432;-65
2024/01/09 17:29:25;;;;;;;11.70;4.90;;;;;;;-3.01;62.69;102179.01;108097;1287;22569;-61
2024/01/09 17:31:51;;;;;;;8.50;3.50;;;;;;;-2.91;63.71;102176.92;108189;1287;21997;-66
2024/01/09 17:34:17;;;;;;;11.90;5.20;;;;;;;-2.82;64.08;102174.84;108194;1287;21986;-60
2024/01/09 17:36:45;;;;;;;8.00;3.50;;;;;;;-2.74;64.38;102170.63;108114;1287;22001;-65
2024/01/09 17:39:10;;;;;;;9.10;4.20;;;;;;;-2.69;64.57;102167.00;108172;1287;22049;-66
2024/01/09 17:41:39;;;;;;;13.90;5.30;;;;;;;-2.61;64.80;102163.05;108128;1287;21993;-65
2024/01/09 17:44:06;;;;;;;13.30;5.90;;;;;;;-2.54;65.13;102160.30;107369;1287;1002395;-66
2024/01/09 17:46:31;;;;;;;7.90;3.90;;;;;;;-2.47;65.27;102163.72;108097;1287;21993;-60
2024/01/09 17:48:59;;;;;;;11.50;4.60;;;;;;;-2.40;65.52;102165.92;108124;1287;21989;-66
2024/01/09 17:51:29;;;;;;;10.50;3.80;;;;;;;-2.35;65.87;102169.83;107334;1287;1002894;-66
2024/01/09 17:53:55;;;;;;;11.10;4.00;;;;;;;-2.27;66.27;102174.36;108054;1281;23653;-60
2024/01/09 17:56:21;;;;;;;9.20;4.00;;;;;;;-2.18;66.40;102179.11;107933;1287;21999;-65
2024/01/09 17:58:48;;;;;;;6.80;3.10;;;;;;;-2.16;66.22;102186.46;108204;1287;22000;-61
2024/01/09 18:01:14;;;;;;;8.10;4.10;;;;;;;-2.14;66.30;102184.35;108233;1287;21993;-66
2024/01/09 18:03:40;;;;;;;8.10;3.90;;;;;;;-2.07;66.54;102184.16;107504;1287;1002388;-65
2024/01/09 18:06:09;;;;;;;11.10;4.20;;;;;;;-2.03;66.75;102181.85;108139;1287;21991;-66
2024/01/09 18:08:35;;;;;;;6.80;3.70;;;;;;;-1.97;66.86;102179.28;108033;1286;21996;-64
2024/01/09 18:11:01;;;;;;;13.00;5.50;;;;;;;-1.90;67.05;102181.79;108087;1287;21989;-61
2024/01/09 18:13:28;;;;;;;5.70;3.50;;;;;;;-1.83;67.18;102184.52;108223;1287;23663;-64
2024/01/09 18:15:55;;;;;;;6.50;2.90;;;;;;;-1.74;67.44;102193.56;107443;1287;1002523;-61
2024/01/09 18:18:21;;;;;;;13.90;4.10;;;;;;;-1.68;67.50;102196.56;107366;1287;1003112;-64
2024/01/09 18:20:46;;;;;;;6.20;3.00;;;;;;;-1.65;67.48;102197.45;107340;1287;1002410;-65
2024/01/09 18:23:13;;;;;;;7.70;3.30;;;;;;;-1.62;67.61;102193.84;108175;1287;23643;-61
2024/01/09 18:25:38;;;;;;;6.10;2.90;;;;;;;-1.59;67.66;102191.98;107855;1287;22450;-60
2024/01/09 18:28:05;;;;;;;6.40;3.10;;;;;;;-1.54;67.93;102184.73;108086;1287;21994;-63
2024/01/09 18:30:30;;;;;;;6.10;2.90;;;;;;;-1.48;67.83;102189.20;109104;1286;22221;-60
2024/01/09 18:32:56;;;;;;;5.00;2.10;;;;;;;-1.43;67.93;102192.80;107182;1289;1003214;-66
2024/01/09 18:35:21;;;;;;;6.00;2.20;;;;;;;-1.38;68.51;102197.80;107886;1289;21992;-66
2024/01/09 18:37:48;;;;;;;6.40;2.90;;;;;;;-1.30;68.83;102202.09;107872;1289;22031;-66